createdAt,value
2023-01-19T00:01:06.701Z,5.23
2023-01-19T00:04:15.294Z,5.28
2023-01-19T00:07:29.688Z,5.26
2023-01-19T00:10:32.363Z,5.27
2023-01-19T00:13:46.701Z,5.27
2023-01-19T00:17:01.705Z,5.25
2023-01-19T00:20:10.717Z,5.22
2023-01-19T00:23:19.361Z,5.20
2023-01-19T00:26:33.719Z,5.21
2023-01-19T00:29:42.346Z,5.19
2023-01-19T00:32:56.803Z,5.17
2023-01-19T00:36:12.699Z,5.15
2023-01-19T00:39:14.607Z,5.12
2023-01-19T00:42:29.724Z,5.09
2023-01-19T00:45:44.732Z,5.10
2023-01-19T00:48:53.290Z,5.10
2023-01-19T00:52:01.721Z,5.11
2023-01-19T00:55:18.713Z,5.07
2023-01-19T00:58:26.715Z,5.04
2023-01-19T01:01:45.312Z,5.03
2023-01-19T01:04:54.729Z,4.95
2023-01-19T01:08:09.719Z,4.90
2023-01-19T01:11:11.641Z,4.86
2023-01-19T01:14:26.727Z,4.84
2023-01-19T01:17:28.589Z,4.84
2023-01-19T01:20:43.716Z,4.81
2023-01-19T01:23:52.361Z,4.84
2023-01-19T01:27:00.685Z,4.84
2023-01-19T01:30:11.916Z,4.85
2023-01-19T01:33:40.703Z,4.85
2023-01-19T01:36:43.530Z,4.80
2023-01-19T01:39:58.710Z,4.78
2023-01-19T01:43:22.688Z,4.76
2023-01-19T01:46:31.789Z,4.78
2023-01-19T01:49:46.721Z,4.70
2023-01-19T01:53:07.493Z,4.70
2023-01-19T01:56:21.660Z,4.58
2023-01-19T01:59:29.718Z,4.51
2023-01-19T02:02:38.696Z,4.47
2023-01-19T02:05:48.664Z,4.48
2023-01-19T02:09:09.531Z,4.48
2023-01-19T02:12:24.689Z,4.46
2023-01-19T02:15:26.562Z,4.37
2023-01-19T02:18:42.705Z,4.35
2023-01-19T02:22:07.964Z,4.36
2023-01-19T02:25:24.690Z,4.22
2023-01-19T02:28:27.883Z,4.13
2023-01-19T02:31:45.664Z,4.12
2023-01-19T02:35:01.706Z,4.14
2023-01-19T02:38:04.532Z,4.12
2023-01-19T02:41:24.685Z,4.12
2023-01-19T02:44:35.470Z,4.11
2023-01-19T02:47:55.702Z,4.15
2023-01-19T02:51:16.062Z,4.10
2023-01-19T02:54:53.699Z,4.08
2023-01-19T02:58:58.473Z,4.12
2023-01-19T03:02:45.725Z,4.13
2023-01-19T03:06:15.712Z,4.12
2023-01-19T03:09:55.719Z,4.05
2023-01-19T03:13:06.759Z,4.02
2023-01-19T03:16:24.750Z,4.05
2023-01-19T03:19:37.597Z,3.98
2023-01-19T03:26:11.957Z,3.92
2023-01-19T03:29:28.734Z,3.97
2023-01-19T03:32:43.559Z,3.94
2023-01-19T03:35:58.726Z,3.96
2023-01-19T03:39:10.108Z,3.93
2023-01-19T03:42:21.764Z,3.89
2023-01-19T03:45:39.266Z,3.86
2023-01-19T03:48:54.730Z,3.77
2023-01-19T03:52:10.723Z,3.66
2023-01-19T03:55:25.727Z,3.69
2023-01-19T03:58:34.740Z,3.71
2023-01-19T04:01:44.239Z,3.70
2023-01-19T04:04:52.751Z,3.75
2023-01-19T04:08:07.734Z,3.68
2023-01-19T04:11:10.106Z,3.65
2023-01-19T04:14:24.755Z,3.65
2023-01-19T04:17:33.444Z,3.56
2023-01-19T04:20:48.808Z,3.55
2023-01-19T04:23:57.717Z,3.44
2023-01-19T04:27:06.715Z,3.39
2023-01-19T04:30:15.684Z,3.36
2023-01-19T04:33:26.754Z,3.41
2023-01-19T04:36:41.731Z,3.42
2023-01-19T04:39:56.732Z,3.41
2023-01-19T04:44:28.820Z,4.01
2023-01-19T04:47:44.800Z,4.01
2023-01-19T04:50:59.848Z,3.48
2023-01-19T04:54:02.421Z,3.45
2023-01-19T04:57:17.812Z,3.45
2023-01-19T05:00:20.358Z,3.44
2023-01-19T05:03:34.829Z,3.44
2023-01-19T05:06:43.809Z,3.32
2023-01-19T05:09:58.850Z,3.29
2023-01-19T05:13:07.841Z,3.31
2023-01-19T05:16:16.556Z,3.27
2023-01-19T05:19:31.827Z,3.18
2023-01-19T05:22:40.845Z,3.27
2023-01-19T05:25:55.806Z,3.32
2023-01-19T05:29:04.610Z,3.30
2023-01-19T05:32:19.844Z,3.27
2023-01-19T05:35:35.708Z,3.30
2023-01-19T05:38:44.802Z,3.38
2023-01-19T05:42:00.824Z,3.39
2023-01-19T05:45:16.194Z,3.46
2023-01-19T05:48:24.821Z,3.48
2023-01-19T05:51:34.859Z,3.51
2023-01-19T05:54:49.808Z,3.54
2023-01-19T05:57:58.815Z,3.46
2023-01-19T06:01:08.989Z,3.48
2023-01-19T06:04:23.809Z,3.48
2023-01-19T06:07:38.827Z,3.49
2023-01-19T06:10:40.976Z,3.53
2023-01-19T06:13:55.800Z,3.47
2023-01-19T06:17:10.830Z,3.54
2023-01-19T06:20:13.313Z,3.54
2023-01-19T06:23:27.823Z,3.60
2023-01-19T06:26:36.592Z,3.59
2023-01-19T06:29:45.833Z,3.63
2023-01-19T06:32:54.600Z,3.59
2023-01-19T06:36:09.866Z,3.64
2023-01-19T06:39:24.896Z,3.58
2023-01-19T06:42:27.696Z,3.60
2023-01-19T06:45:45.228Z,3.52
2023-01-19T06:48:55.269Z,3.61
2023-01-19T06:52:09.814Z,3.57
2023-01-19T06:55:18.814Z,3.65
2023-01-19T06:58:35.788Z,3.68
2023-01-19T07:01:44.934Z,3.68
2023-01-19T07:04:54.539Z,3.66
2023-01-19T07:08:03.846Z,3.71
2023-01-19T07:11:25.618Z,3.76
2023-01-19T07:14:40.816Z,3.76
2023-01-19T07:17:55.789Z,3.78
2023-01-19T07:21:05.046Z,3.83
2023-01-19T07:24:19.782Z,3.87
2023-01-19T07:27:21.737Z,3.90
2023-01-19T07:30:36.867Z,3.93
2023-01-19T07:33:52.832Z,3.96
2023-01-19T07:37:01.468Z,3.99
2023-01-19T07:40:10.846Z,3.98
2023-01-19T07:43:32.781Z,3.95
2023-01-19T07:46:47.815Z,3.97
2023-01-19T07:49:58.867Z,4.03
2023-01-19T07:53:15.810Z,4.04
2023-01-19T07:56:24.802Z,4.09
2023-01-19T07:59:39.794Z,4.12
2023-01-19T08:02:51.283Z,4.14
2023-01-19T08:06:08.815Z,4.19
2023-01-19T08:09:19.177Z,4.19
2023-01-19T08:12:37.068Z,4.21
2023-01-19T08:15:52.202Z,4.22
2023-01-19T08:19:06.860Z,4.25
2023-01-19T08:22:09.861Z,4.20
2023-01-19T08:25:24.817Z,4.20
2023-01-19T08:28:33.796Z,4.28
2023-01-19T08:31:48.944Z,4.30
2023-01-19T08:35:06.129Z,4.29
2023-01-19T08:38:16.811Z,4.35
2023-01-19T08:41:25.910Z,4.31
2023-01-19T08:44:49.699Z,4.30
2023-01-19T08:48:14.942Z,4.42
2023-01-19T08:51:23.735Z,4.43
2023-01-19T08:54:38.809Z,4.45
2023-01-19T08:57:51.972Z,4.47
2023-01-19T09:01:06.809Z,4.47
2023-01-19T09:04:15.807Z,4.44
2023-01-19T09:07:32.518Z,4.45
2023-01-19T09:10:39.566Z,4.46
2023-01-19T09:13:54.814Z,4.46
2023-01-19T09:17:09.811Z,4.49
2023-01-19T09:20:25.952Z,4.46
2023-01-19T09:23:40.827Z,4.44
2023-01-19T09:26:49.436Z,4.52
2023-01-19T09:29:57.841Z,4.51
2023-01-19T09:33:08.601Z,4.52
2023-01-19T09:36:23.864Z,4.53
2023-01-19T09:39:26.025Z,4.49
2023-01-19T09:42:52.819Z,4.52
2023-01-19T09:46:16.149Z,4.50
2023-01-19T09:49:43.793Z,4.53
2023-01-19T09:52:59.027Z,4.54
2023-01-19T09:56:22.804Z,4.56
2023-01-19T09:59:33.639Z,4.63
2023-01-19T10:03:04.861Z,4.66
2023-01-19T10:06:18.817Z,4.62
2023-01-19T10:09:45.561Z,4.71
2023-01-19T10:13:38.817Z,4.70
2023-01-19T10:16:57.780Z,4.68
2023-01-19T10:20:22.800Z,4.66
2023-01-19T10:23:43.801Z,4.67
2023-01-19T10:26:56.650Z,4.67
2023-01-19T10:30:16.189Z,4.65
2023-01-19T10:33:18.698Z,4.66
2023-01-19T10:36:46.783Z,4.64
2023-01-19T10:40:07.843Z,4.57
2023-01-19T10:43:38.833Z,4.57
2023-01-19T10:46:57.193Z,4.48
2023-01-19T10:49:59.497Z,4.47
2023-01-19T10:53:27.891Z,4.37
2023-01-19T10:56:38.384Z,4.30
2023-01-19T10:59:57.868Z,4.28
2023-01-19T11:03:01.099Z,4.22
2023-01-19T11:06:21.795Z,4.20
2023-01-19T11:09:30.666Z,4.24
2023-01-19T11:12:39.803Z,4.24
2023-01-19T11:15:55.741Z,4.08
2023-01-19T11:19:05.796Z,4.10
2023-01-19T11:22:26.796Z,4.05
2023-01-19T11:25:42.805Z,4.12
2023-01-19T11:29:06.512Z,4.13
2023-01-19T11:32:19.634Z,4.23
2023-01-19T11:35:41.872Z,4.17
2023-01-19T11:38:55.947Z,4.12
2023-01-19T11:42:08.108Z,4.11
2023-01-19T11:45:30.086Z,4.08
2023-01-19T11:48:59.507Z,4.14
2023-01-19T11:52:43.077Z,4.07
2023-01-19T11:55:58.684Z,4.03
2023-01-19T11:59:18.790Z,4.09
2023-01-19T12:02:35.289Z,4.07
2023-01-19T12:05:56.912Z,4.06
2023-01-19T12:09:15.200Z,4.10
2023-01-19T12:12:36.865Z,4.12
2023-01-19T12:15:50.617Z,4.19
2023-01-19T12:19:22.001Z,4.18
2023-01-19T12:22:47.791Z,4.21
2023-01-19T12:26:25.072Z,4.20
2023-01-19T12:29:43.036Z,4.15
2023-01-19T12:32:51.862Z,4.14
2023-01-19T12:36:07.071Z,4.12
2023-01-19T12:39:22.578Z,4.17
2023-01-19T12:42:33.925Z,4.25
2023-01-19T12:45:55.817Z,4.27
2023-01-19T12:49:21.807Z,4.26
2023-01-19T12:52:40.721Z,4.30
2023-01-19T12:56:06.777Z,4.24
2023-01-19T12:59:36.473Z,4.23
2023-01-19T13:02:50.867Z,4.17
2023-01-19T13:05:59.942Z,4.17
2023-01-19T13:09:08.787Z,4.15
2023-01-19T13:12:33.136Z,4.15
2023-01-19T13:15:41.696Z,4.19
2023-01-19T13:19:06.826Z,4.23
2023-01-19T13:22:52.821Z,4.13
2023-01-19T13:26:06.442Z,4.12
2023-01-19T13:29:38.937Z,4.11
2023-01-19T13:32:49.016Z,4.14
2023-01-19T13:36:05.787Z,4.12
2023-01-19T13:39:20.070Z,4.17
2023-01-19T13:42:40.831Z,4.23
2023-01-19T13:45:56.197Z,4.22
2023-01-19T13:49:27.383Z,4.18
2023-01-19T13:52:36.951Z,4.18
2023-01-19T13:55:46.178Z,4.24
2023-01-19T13:59:05.720Z,4.26
2023-01-19T14:02:20.031Z,4.26
2023-01-19T14:05:40.910Z,4.30
2023-01-19T14:09:23.519Z,4.19
2023-01-19T14:12:32.769Z,4.07
2023-01-19T14:15:42.939Z,3.86
2023-01-19T14:18:51.787Z,3.95
2023-01-19T14:22:04.792Z,3.89
2023-01-19T14:25:33.841Z,4.00
2023-01-19T14:28:43.684Z,3.96
2023-01-19T14:32:07.753Z,3.72
2023-01-19T14:35:34.820Z,3.84
2023-01-19T14:38:51.945Z,3.92
2023-01-19T14:42:10.921Z,3.97
2023-01-19T14:45:28.803Z,4.02
2023-01-19T14:48:43.776Z,3.97
2023-01-19T14:51:52.619Z,3.98
2023-01-19T14:55:02.786Z,4.00
2023-01-19T14:58:19.775Z,3.90
2023-01-19T15:01:29.061Z,3.85
2023-01-19T15:04:37.771Z,3.66
2023-01-19T15:07:46.898Z,3.73
2023-01-19T15:10:55.759Z,3.72
2023-01-19T15:14:04.421Z,3.73
2023-01-19T15:17:12.761Z,3.77
2023-01-19T15:20:22.811Z,3.77
2023-01-19T15:23:38.784Z,3.71
2023-01-19T15:26:47.466Z,3.69
2023-01-19T15:29:55.758Z,3.68
2023-01-19T15:33:11.784Z,3.68
2023-01-19T15:36:28.764Z,3.60
2023-01-19T15:39:30.918Z,3.50
2023-01-19T15:42:46.762Z,3.50
2023-01-19T15:46:02.656Z,3.42
2023-01-19T15:49:17.766Z,3.49
2023-01-19T15:52:26.745Z,3.49
2023-01-19T15:55:35.468Z,3.43
2023-01-19T15:58:44.725Z,3.46
2023-01-19T16:01:59.864Z,3.45
2023-01-19T16:05:09.151Z,3.40
2023-01-19T16:08:25.762Z,3.37
2023-01-19T16:11:41.841Z,3.39
2023-01-19T16:14:50.481Z,3.43
2023-01-19T16:17:58.759Z,3.43
2023-01-19T16:21:13.780Z,3.48
2023-01-19T16:24:22.458Z,3.41
2023-01-19T16:27:37.743Z,3.36
2023-01-19T16:30:53.793Z,3.39
2023-01-19T16:34:02.811Z,3.39
2023-01-19T16:37:12.576Z,3.33
2023-01-19T16:40:21.763Z,3.39
2023-01-19T16:43:36.910Z,3.29
2023-01-19T16:46:47.233Z,3.42
2023-01-19T16:50:03.192Z,3.34
2023-01-19T16:53:11.696Z,3.33
2023-01-19T16:56:26.787Z,3.38
2023-01-19T16:59:29.338Z,3.33
2023-01-19T17:02:45.745Z,3.19
2023-01-19T17:06:00.766Z,3.18
2023-01-19T17:09:03.378Z,3.25
2023-01-19T17:12:19.264Z,3.21
2023-01-19T17:15:30.141Z,3.15
2023-01-19T17:18:45.766Z,3.19
2023-01-19T17:21:49.519Z,3.07
2023-01-19T17:25:06.173Z,3.13
2023-01-19T17:28:08.999Z,3.17
2023-01-19T17:31:28.247Z,3.13
2023-01-19T17:34:37.914Z,3.08
2023-01-19T17:37:55.143Z,3.10
2023-01-19T17:41:04.603Z,3.15
2023-01-19T17:44:18.757Z,3.15
2023-01-19T17:47:35.840Z,3.12
2023-01-19T17:50:53.048Z,3.06
2023-01-19T17:53:56.286Z,3.05
2023-01-19T17:57:12.117Z,3.00
2023-01-19T18:00:22.741Z,3.03
2023-01-19T18:03:32.699Z,2.97
2023-01-19T18:06:42.756Z,2.64
2023-01-19T18:10:00.968Z,2.97
2023-01-19T18:13:10.850Z,2.95
2023-01-19T18:16:24.108Z,2.89
2023-01-19T18:19:33.769Z,2.95
2023-01-19T18:22:43.176Z,2.92
2023-01-19T18:26:02.682Z,2.97
2023-01-19T18:29:14.868Z,2.97
2023-01-19T18:32:32.194Z,2.97
2023-01-19T18:35:41.635Z,2.91
2023-01-19T18:38:58.159Z,2.87
2023-01-19T18:42:14.225Z,2.94
2023-01-19T18:45:37.221Z,2.91
2023-01-19T18:48:43.745Z,2.90
2023-01-19T18:52:00.113Z,2.98
2023-01-19T18:55:17.208Z,2.96
2023-01-19T18:58:21.359Z,2.92
2023-01-19T19:01:40.223Z,2.91
2023-01-19T19:04:45.175Z,2.91
2023-01-19T19:08:01.166Z,2.92
2023-01-19T19:11:08.229Z,2.79
2023-01-19T19:14:30.256Z,2.75
2023-01-19T19:17:36.030Z,2.73
2023-01-19T19:20:52.203Z,2.72
2023-01-19T19:24:03.739Z,2.78
2023-01-19T19:27:13.508Z,2.73
2023-01-19T19:30:24.212Z,2.79
2023-01-19T19:33:34.651Z,2.83
2023-01-19T19:36:45.173Z,2.71
2023-01-19T19:39:55.762Z,2.76
2023-01-19T19:43:12.215Z,2.77
2023-01-19T19:46:22.840Z,2.81
2023-01-19T19:49:39.590Z,2.81
2023-01-19T19:52:43.860Z,2.72
2023-01-19T19:56:08.847Z,2.70
2023-01-19T19:59:19.069Z,2.67
2023-01-19T20:02:28.741Z,2.57
2023-01-19T20:05:39.408Z,2.70
2023-01-19T20:08:58.127Z,2.70
2023-01-19T20:12:14.152Z,2.52
2023-01-19T20:15:17.196Z,2.47
2023-01-19T20:18:33.126Z,2.49
2023-01-19T20:21:43.411Z,2.46
2023-01-19T20:25:02.003Z,2.47
2023-01-19T20:28:05.540Z,2.47
2023-01-19T20:31:35.165Z,2.43
2023-01-19T20:34:45.117Z,2.31
2023-01-19T20:38:00.746Z,2.37
2023-01-19T20:41:11.320Z,2.28
2023-01-19T20:44:31.154Z,2.23
2023-01-19T20:47:47.200Z,2.20
2023-01-19T20:50:57.030Z,2.22
2023-01-19T20:54:17.230Z,2.23
2023-01-19T20:57:33.162Z,2.23
2023-01-19T21:00:49.791Z,2.24
2023-01-19T21:04:06.186Z,1.85
2023-01-19T21:07:16.169Z,2.09
2023-01-19T21:10:31.725Z,2.02
2023-01-19T21:13:41.186Z,2.08
2023-01-19T21:16:50.729Z,2.07
2023-01-19T21:20:00.040Z,2.08
2023-01-19T21:23:16.096Z,2.17
2023-01-19T21:26:18.867Z,2.21
2023-01-19T21:29:33.712Z,2.17
2023-01-19T21:32:42.654Z,2.13
2023-01-19T21:36:01.969Z,2.12
2023-01-19T21:39:17.737Z,2.19
2023-01-19T21:42:26.866Z,2.24
2023-01-19T21:45:49.785Z,2.22
2023-01-19T21:48:51.897Z,2.30
2023-01-19T21:52:06.714Z,2.29
2023-01-19T21:55:23.723Z,2.34
2023-01-19T21:58:38.934Z,2.41
2023-01-19T22:01:53.825Z,2.39
2023-01-19T22:05:09.710Z,2.33
2023-01-19T22:08:11.733Z,2.22
2023-01-19T22:11:28.767Z,2.36
2023-01-19T22:14:30.817Z,2.39
2023-01-19T22:17:45.730Z,2.34
2023-01-19T22:21:00.731Z,2.25
2023-01-19T22:24:09.507Z,2.29
2023-01-19T22:27:25.696Z,2.33
2023-01-19T22:30:27.965Z,2.37
2023-01-19T22:33:43.689Z,2.43
2023-01-19T22:36:45.701Z,2.45
2023-01-19T22:40:00.756Z,2.47
2023-01-19T22:43:15.748Z,2.53
2023-01-19T22:46:34.031Z,2.47
2023-01-19T22:49:42.744Z,2.46
2023-01-19T22:52:56.459Z,2.53
2023-01-19T22:56:04.716Z,2.55
2023-01-19T22:59:20.717Z,2.55
2023-01-19T23:02:23.070Z,2.54
2023-01-19T23:05:42.749Z,2.47
2023-01-19T23:08:45.249Z,2.55
2023-01-19T23:11:59.685Z,2.56
2023-01-19T23:15:01.740Z,2.60
2023-01-19T23:18:16.705Z,2.62
2023-01-19T23:21:20.938Z,2.51
2023-01-19T23:24:35.709Z,2.50
2023-01-19T23:27:44.344Z,2.52
2023-01-19T23:30:59.831Z,2.50
2023-01-19T23:34:07.739Z,2.51
2023-01-19T23:37:22.680Z,2.52
2023-01-19T23:40:24.706Z,2.50
2023-01-19T23:43:40.732Z,2.51
2023-01-19T23:46:49.705Z,2.56
2023-01-19T23:49:58.460Z,2.55
2023-01-19T23:53:07.779Z,2.54
2023-01-19T23:56:37.795Z,2.43
2023-01-19T23:59:47.018Z,2.47
